sensor_id;sensor_type;location;lat;lon;timestamp;pressure;altitude;pressure_sealevel;temperature;humidity
58761;BME280;44529;47.464;19.014;2023-03-22T00:02:55;100164.75;;;10.19;69.07
58761;BME280;44529;47.464;19.014;2023-03-22T00:05:58;100166.34;;;10.20;69.16
58761;BME280;44529;47.464;19.014;2023-03-22T00:09:00;100168.16;;;10.24;69.22
58761;BME280;44529;47.464;19.014;2023-03-22T00:12:03;100161.50;;;10.30;69.62
58761;BME280;44529;47.464;19.014;2023-03-22T00:15:05;100174.69;;;10.32;69.79
58761;BME280;44529;47.464;19.014;2023-03-22T00:18:10;100166.47;;;10.37;69.21
58761;BME280;44529;47.464;19.014;2023-03-22T00:21:15;100171.34;;;10.26;70.25
58761;BME280;44529;47.464;19.014;2023-03-22T00:24:17;100170.75;;;10.16;70.41
58761;BME280;44529;47.464;19.014;2023-03-22T00:27:22;100161.19;;;10.10;70.43
58761;BME280;44529;47.464;19.014;2023-03-22T00:30:24;100159.59;;;10.09;70.53
58761;BME280;44529;47.464;19.014;2023-03-22T00:33:28;100161.94;;;10.01;70.88
58761;BME280;44529;47.464;19.014;2023-03-22T00:36:31;100157.47;;;9.97;71.44
58761;BME280;44529;47.464;19.014;2023-03-22T00:39:33;100168.09;;;9.93;71.46
58761;BME280;44529;47.464;19.014;2023-03-22T00:42:37;100162.34;;;9.86;72.30
58761;BME280;44529;47.464;19.014;2023-03-22T00:45:40;100158.06;;;9.63;73.22
58761;BME280;44529;47.464;19.014;2023-03-22T00:48:42;100156.09;;;9.55;73.59
58761;BME280;44529;47.464;19.014;2023-03-22T00:51:45;100157.12;;;9.45;73.99
58761;BME280;44529;47.464;19.014;2023-03-22T00:54:48;100157.84;;;9.37;74.54
58761;BME280;44529;47.464;19.014;2023-03-22T00:57:50;100159.94;;;9.40;74.39
58761;BME280;44529;47.464;19.014;2023-03-22T01:00:52;100160.25;;;9.38;74.76
58761;BME280;44529;47.464;19.014;2023-03-22T01:03:55;100166.63;;;9.42;74.30
58761;BME280;44529;47.464;19.014;2023-03-22T01:06:57;100164.78;;;9.29;74.77
58761;BME280;44529;47.464;19.014;2023-03-22T01:10:04;100166.00;;;9.23;75.07
58761;BME280;44529;47.464;19.014;2023-03-22T01:13:09;100155.22;;;9.23;75.16
58761;BME280;44529;47.464;19.014;2023-03-22T01:16:12;100153.84;;;9.12;76.11
58761;BME280;44529;47.464;19.014;2023-03-22T01:19:15;100156.84;;;9.10;76.00
58761;BME280;44529;47.464;19.014;2023-03-22T01:22:17;100151.94;;;9.12;76.00
58761;BME280;44529;47.464;19.014;2023-03-22T01:25:20;100145.75;;;9.12;76.24
58761;BME280;44529;47.464;19.014;2023-03-22T01:28:22;100140.78;;;8.91;78.35
58761;BME280;44529;47.464;19.014;2023-03-22T01:31:28;100141.38;;;8.88;77.47
58761;BME280;44529;47.464;19.014;2023-03-22T01:34:30;100138.69;;;8.88;77.48
58761;BME280;44529;47.464;19.014;2023-03-22T01:37:33;100140.91;;;8.86;77.92
58761;BME280;44529;47.464;19.014;2023-03-22T01:40:36;100132.44;;;8.79;78.17
58761;BME280;44529;47.464;19.014;2023-03-22T01:43:40;100135.22;;;8.74;77.85
58761;BME280;44529;47.464;19.014;2023-03-22T01:46:45;100135.91;;;8.80;77.63
58761;BME280;44529;47.464;19.014;2023-03-22T01:49:48;100146.81;;;8.75;78.39
58761;BME280;44529;47.464;19.014;2023-03-22T01:52:51;100141.81;;;8.68;79.04
58761;BME280;44529;47.464;19.014;2023-03-22T01:55:55;100141.53;;;8.70;80.20
58761;BME280;44529;47.464;19.014;2023-03-22T01:58:59;100147.41;;;8.72;80.14
58761;BME280;44529;47.464;19.014;2023-03-22T02:02:04;100143.81;;;8.76;80.19
58761;BME280;44529;47.464;19.014;2023-03-22T02:05:07;100147.72;;;8.70;80.08
58761;BME280;44529;47.464;19.014;2023-03-22T02:08:09;100147.72;;;8.70;80.88
58761;BME280;44529;47.464;19.014;2023-03-22T02:11:28;100145.22;;;8.74;80.50
58761;BME280;44529;47.464;19.014;2023-03-22T02:14:44;100142.50;;;8.74;80.90
58761;BME280;44529;47.464;19.014;2023-03-22T02:24:59;100152.91;;;8.66;81.70
58761;BME280;44529;47.464;19.014;2023-03-22T02:28:35;100149.31;;;8.71;81.55
58761;BME280;44529;47.464;19.014;2023-03-22T02:41:17;100157.50;;;8.66;81.37
58761;BME280;44529;47.464;19.014;2023-03-22T02:44:45;100164.00;;;8.65;80.58
58761;BME280;44529;47.464;19.014;2023-03-22T02:48:04;100161.59;;;8.50;79.14
58761;BME280;44529;47.464;19.014;2023-03-22T02:51:16;100164.44;;;8.26;79.59
58761;BME280;44529;47.464;19.014;2023-03-22T02:54:41;100165.22;;;7.99;80.74
58761;BME280;44529;47.464;19.014;2023-03-22T02:57:54;100169.16;;;7.87;81.35
58761;BME280;44529;47.464;19.014;2023-03-22T03:01:06;100167.72;;;7.76;81.64
58761;BME280;44529;47.464;19.014;2023-03-22T03:04:15;100168.31;;;7.73;81.31
58761;BME280;44529;47.464;19.014;2023-03-22T03:07:22;100159.72;;;7.71;82.01
58761;BME280;44529;47.464;19.014;2023-03-22T03:10:26;100165.72;;;7.68;82.31
58761;BME280;44529;47.464;19.014;2023-03-22T03:13:29;100166.88;;;7.62;82.38
58761;BME280;44529;47.464;19.014;2023-03-22T03:16:32;100172.28;;;7.62;82.84
58761;BME280;44529;47.464;19.014;2023-03-22T03:19:46;100165.72;;;7.68;82.49
58761;BME280;44529;47.464;19.014;2023-03-22T03:22:57;100162.72;;;7.70;82.87
58761;BME280;44529;47.464;19.014;2023-03-22T03:26:16;100160.47;;;7.58;83.71
58761;BME280;44529;47.464;19.014;2023-03-22T03:32:45;100155.09;;;7.58;84.16
58761;BME280;44529;47.464;19.014;2023-03-22T03:35:57;100158.50;;;7.64;84.06
58761;BME280;44529;47.464;19.014;2023-03-22T03:39:01;100167.31;;;7.69;83.27
58761;BME280;44529;47.464;19.014;2023-03-22T03:42:06;100162.13;;;7.73;83.02
58761;BME280;44529;47.464;19.014;2023-03-22T03:45:14;100162.84;;;7.78;84.07
58761;BME280;44529;47.464;19.014;2023-03-22T03:48:20;100164.53;;;7.74;85.32
58761;BME280;44529;47.464;19.014;2023-03-22T03:51:25;100175.91;;;7.85;83.99
58761;BME280;44529;47.464;19.014;2023-03-22T03:54:28;100179.75;;;7.65;84.69
58761;BME280;44529;47.464;19.014;2023-03-22T03:57:30;100190.50;;;7.65;83.91
58761;BME280;44529;47.464;19.014;2023-03-22T04:00:34;100175.19;;;7.47;84.43
58761;BME280;44529;47.464;19.014;2023-03-22T04:03:39;100175.09;;;7.52;84.23
58761;BME280;44529;47.464;19.014;2023-03-22T04:06:42;100162.37;;;7.57;84.35
58761;BME280;44529;47.464;19.014;2023-03-22T04:09:45;100183.19;;;7.52;84.73
58761;BME280;44529;47.464;19.014;2023-03-22T04:12:47;100190.38;;;7.38;83.83
58761;BME280;44529;47.464;19.014;2023-03-22T04:15:54;100178.47;;;7.25;83.02
58761;BME280;44529;47.464;19.014;2023-03-22T04:18:56;100167.22;;;7.23;82.65
58761;BME280;44529;47.464;19.014;2023-03-22T04:21:59;100172.34;;;7.19;83.55
58761;BME280;44529;47.464;19.014;2023-03-22T04:25:06;100187.66;;;7.00;83.64
58761;BME280;44529;47.464;19.014;2023-03-22T04:28:13;100178.03;;;6.75;84.95
58761;BME280;44529;47.464;19.014;2023-03-22T04:31:15;100178.88;;;6.94;83.46
58761;BME280;44529;47.464;19.014;2023-03-22T04:34:20;100177.34;;;6.88;84.26
58761;BME280;44529;47.464;19.014;2023-03-22T04:37:23;100170.06;;;6.89;85.51
58761;BME280;44529;47.464;19.014;2023-03-22T04:40:29;100173.56;;;7.08;85.63
58761;BME280;44529;47.464;19.014;2023-03-22T04:43:37;100185.53;;;7.02;85.25
58761;BME280;44529;47.464;19.014;2023-03-22T04:46:41;100183.88;;;7.01;84.70
58761;BME280;44529;47.464;19.014;2023-03-22T04:49:45;100184.34;;;7.08;84.55
58761;BME280;44529;47.464;19.014;2023-03-22T04:52:50;100187.75;;;7.14;84.63
58761;BME280;44529;47.464;19.014;2023-03-22T04:55:53;100185.53;;;7.02;85.33
58761;BME280;44529;47.464;19.014;2023-03-22T04:58:59;100196.84;;;6.99;85.67
58761;BME280;44529;47.464;19.014;2023-03-22T05:02:02;100189.72;;;7.08;85.27
58761;BME280;44529;47.464;19.014;2023-03-22T05:05:06;100198.81;;;7.12;85.46
58761;BME280;44529;47.464;19.014;2023-03-22T05:08:08;100203.88;;;7.14;85.07
58761;BME280;44529;47.464;19.014;2023-03-22T05:11:13;100204.69;;;7.14;85.42
58761;BME280;44529;47.464;19.014;2023-03-22T05:14:18;100205.47;;;7.15;86.13
58761;BME280;44529;47.464;19.014;2023-03-22T05:17:21;100219.09;;;7.23;85.71
58761;BME280;44529;47.464;19.014;2023-03-22T05:20:23;100216.25;;;7.15;85.49
58761;BME280;44529;47.464;19.014;2023-03-22T05:23:27;100209.94;;;7.24;85.37
58761;BME280;44529;47.464;19.014;2023-03-22T05:26:30;100204.94;;;7.37;86.22
58761;BME280;44529;47.464;19.014;2023-03-22T05:29:33;100209.66;;;7.45;86.28
58761;BME280;44529;47.464;19.014;2023-03-22T05:32:38;100210.97;;;7.47;85.79
58761;BME280;44529;47.464;19.014;2023-03-22T05:35:45;100216.63;;;7.46;85.85
58761;BME280;44529;47.464;19.014;2023-03-22T05:38:49;100221.88;;;7.56;86.14
58761;BME280;44529;47.464;19.014;2023-03-22T05:41:52;100223.81;;;7.69;85.25
58761;BME280;44529;47.464;19.014;2023-03-22T05:44:55;100225.66;;;7.74;84.70
58761;BME280;44529;47.464;19.014;2023-03-22T05:47:57;100225.78;;;7.82;85.01
58761;BME280;44529;47.464;19.014;2023-03-22T05:51:01;100209.63;;;7.82;85.05
58761;BME280;44529;47.464;19.014;2023-03-22T05:54:07;100218.62;;;7.92;84.97
58761;BME280;44529;47.464;19.014;2023-03-22T05:57:11;100222.81;;;7.98;84.55
58761;BME280;44529;47.464;19.014;2023-03-22T06:00:14;100229.16;;;8.07;84.18
58761;BME280;44529;47.464;19.014;2023-03-22T06:03:20;100233.06;;;8.14;83.86
58761;BME280;44529;47.464;19.014;2023-03-22T06:06:24;100236.47;;;8.20;83.01
58761;BME280;44529;47.464;19.014;2023-03-22T06:09:29;100240.59;;;8.31;83.19
58761;BME280;44529;47.464;19.014;2023-03-22T06:12:32;100244.44;;;8.44;82.70
58761;BME280;44529;47.464;19.014;2023-03-22T06:15:36;100245.97;;;8.64;82.34
58761;BME280;44529;47.464;19.014;2023-03-22T06:18:38;100249.38;;;8.83;82.90
58761;BME280;44529;47.464;19.014;2023-03-22T06:21:41;100256.03;;;9.00;82.56
58761;BME280;44529;47.464;19.014;2023-03-22T06:24:47;100256.16;;;9.08;82.74
58761;BME280;44529;47.464;19.014;2023-03-22T06:27:51;100253.63;;;9.26;81.96
58761;BME280;44529;47.464;19.014;2023-03-22T06:30:54;100247.91;;;9.41;82.62
58761;BME280;44529;47.464;19.014;2023-03-22T06:33:57;100257.25;;;9.57;81.04
58761;BME280;44529;47.464;19.014;2023-03-22T06:37:00;100259.09;;;9.70;80.25
58761;BME280;44529;47.464;19.014;2023-03-22T06:40:05;100263.34;;;9.85;80.03
58761;BME280;44529;47.464;19.014;2023-03-22T06:43:08;100260.31;;;10.00;79.54
58761;BME280;44529;47.464;19.014;2023-03-22T06:46:12;100253.06;;;10.10;79.01
58761;BME280;44529;47.464;19.014;2023-03-22T06:49:17;100255.03;;;10.18;79.18
58761;BME280;44529;47.464;19.014;2023-03-22T06:52:20;100253.06;;;10.32;78.67
58761;BME280;44529;47.464;19.014;2023-03-22T06:55:23;100254.72;;;10.42;78.25
58761;BME280;44529;47.464;19.014;2023-03-22T06:58:26;100254.78;;;10.50;77.63
58761;BME280;44529;47.464;19.014;2023-03-22T07:01:28;100266.06;;;10.52;77.31
58761;BME280;44529;47.464;19.014;2023-03-22T07:04:31;100261.00;;;10.60;76.62
58761;BME280;44529;47.464;19.014;2023-03-22T07:07:34;100268.19;;;10.64;76.19
58761;BME280;44529;47.464;19.014;2023-03-22T07:10:37;100272.72;;;10.77;75.90
58761;BME280;44529;47.464;19.014;2023-03-22T07:13:40;100268.31;;;10.90;75.98
58761;BME280;44529;47.464;19.014;2023-03-22T07:16:43;100272.62;;;11.00;74.37
58761;BME280;44529;47.464;19.014;2023-03-22T07:19:45;100280.00;;;11.17;74.54
58761;BME280;44529;47.464;19.014;2023-03-22T07:22:48;100281.28;;;11.19;73.58
58761;BME280;44529;47.464;19.014;2023-03-22T07:25:52;100283.84;;;11.33;71.92
58761;BME280;44529;47.464;19.014;2023-03-22T07:28:57;100282.78;;;11.43;71.94
58761;BME280;44529;47.464;19.014;2023-03-22T07:32:00;100266.06;;;11.41;71.05
58761;BME280;44529;47.464;19.014;2023-03-22T07:35:04;100278.31;;;11.55;70.13
58761;BME280;44529;47.464;19.014;2023-03-22T07:38:07;100280.56;;;11.71;69.92
58761;BME280;44529;47.464;19.014;2023-03-22T07:41:09;100278.06;;;11.83;69.58
58761;BME280;44529;47.464;19.014;2023-03-22T07:44:14;100268.97;;;11.96;69.81
58761;BME280;44529;47.464;19.014;2023-03-22T07:47:20;100271.03;;;11.90;68.54
58761;BME280;44529;47.464;19.014;2023-03-22T07:50:41;100271.34;;;11.98;68.36
58761;BME280;44529;47.464;19.014;2023-03-22T07:53:44;100279.00;;;12.13;67.58
58761;BME280;44529;47.464;19.014;2023-03-22T07:56:46;100277.84;;;12.23;67.54
58761;BME280;44529;47.464;19.014;2023-03-22T07:59:49;100270.53;;;12.32;67.08
58761;BME280;44529;47.464;19.014;2023-03-22T08:02:55;100282.62;;;12.34;65.08
58761;BME280;44529;47.464;19.014;2023-03-22T08:06:06;100273.06;;;12.37;65.67
58761;BME280;44529;47.464;19.014;2023-03-22T08:09:17;100277.53;;;12.33;67.25
58761;BME280;44529;47.464;19.014;2023-03-22T08:12:25;100273.22;;;12.40;66.08
58761;BME280;44529;47.464;19.014;2023-03-22T08:15:33;100273.50;;;12.47;66.86
58761;BME280;44529;47.464;19.014;2023-03-22T08:18:56;100266.28;;;12.60;66.43
58761;BME280;44529;47.464;19.014;2023-03-22T08:22:11;100257.31;;;12.68;65.97
58761;BME280;44529;47.464;19.014;2023-03-22T08:25:21;100272.34;;;12.66;65.36
58761;BME280;44529;47.464;19.014;2023-03-22T08:28:30;100274.09;;;12.70;64.57
58761;BME280;44529;47.464;19.014;2023-03-22T08:31:41;100275.97;;;12.79;64.31
58761;BME280;44529;47.464;19.014;2023-03-22T08:34:47;100281.78;;;12.98;63.97
58761;BME280;44529;47.464;19.014;2023-03-22T08:37:55;100292.75;;;13.10;64.55
58761;BME280;44529;47.464;19.014;2023-03-22T08:40:59;100291.56;;;13.20;63.78
58761;BME280;44529;47.464;19.014;2023-03-22T08:44:03;100291.78;;;13.15;62.65
58761;BME280;44529;47.464;19.014;2023-03-22T08:47:08;100286.59;;;13.31;62.72
58761;BME280;44529;47.464;19.014;2023-03-22T08:50:11;100289.19;;;13.27;61.32
58761;BME280;44529;47.464;19.014;2023-03-22T08:53:14;100283.75;;;13.18;62.13
58761;BME280;44529;47.464;19.014;2023-03-22T08:56:20;100280.75;;;13.11;62.06
58761;BME280;44529;47.464;19.014;2023-03-22T08:59:25;100285.34;;;13.19;62.31
58761;BME280;44529;47.464;19.014;2023-03-22T09:02:28;100289.50;;;13.25;61.74
58761;BME280;44529;47.464;19.014;2023-03-22T09:05:31;100285.34;;;13.19;62.49
58761;BME280;44529;47.464;19.014;2023-03-22T09:08:34;100275.91;;;13.25;62.27
58761;BME280;44529;47.464;19.014;2023-03-22T09:11:37;100274.09;;;13.38;61.67
58761;BME280;44529;47.464;19.014;2023-03-22T09:14:43;100278.19;;;13.44;61.64
58761;BME280;44529;47.464;19.014;2023-03-22T09:17:48;100281.28;;;13.64;60.53
58761;BME280;44529;47.464;19.014;2023-03-22T09:20:51;100287.31;;;13.69;60.53
58761;BME280;44529;47.464;19.014;2023-03-22T09:23:54;100288.31;;;13.86;59.33
58761;BME280;44529;47.464;19.014;2023-03-22T09:26:58;100287.44;;;13.94;59.30
58761;BME280;44529;47.464;19.014;2023-03-22T09:30:01;100282.94;;;13.98;59.50
58761;BME280;44529;47.464;19.014;2023-03-22T09:33:03;100286.22;;;14.03;60.11
58761;BME280;44529;47.464;19.014;2023-03-22T09:36:08;100278.19;;;14.07;58.20
58761;BME280;44529;47.464;19.014;2023-03-22T09:39:13;100279.25;;;14.15;58.32
58761;BME280;44529;47.464;19.014;2023-03-22T09:42:26;100269.78;;;14.00;58.69
58761;BME280;44529;47.464;19.014;2023-03-22T09:45:34;100268.22;;;13.99;58.64
58761;BME280;44529;47.464;19.014;2023-03-22T09:48:41;100270.78;;;13.95;58.75
58761;BME280;44529;47.464;19.014;2023-03-22T09:51:47;100272.66;;;13.82;59.29
58761;BME280;44529;47.464;19.014;2023-03-22T09:54:50;100269.03;;;13.78;59.84
58761;BME280;44529;47.464;19.014;2023-03-22T10:02:00;100272.97;;;14.02;58.88
58761;BME280;44529;47.464;19.014;2023-03-22T10:05:46;100274.19;;;13.92;58.14
58761;BME280;44529;47.464;19.014;2023-03-22T10:12:24;100268.00;;;13.83;60.14
58761;BME280;44529;47.464;19.014;2023-03-22T10:15:34;100265.19;;;13.79;60.48
58761;BME280;44529;47.464;19.014;2023-03-22T10:18:41;100266.56;;;13.86;59.55
58761;BME280;44529;47.464;19.014;2023-03-22T10:21:47;100269.47;;;14.01;58.65
58761;BME280;44529;47.464;19.014;2023-03-22T10:24:52;100268.41;;;13.94;59.69
58761;BME280;44529;47.464;19.014;2023-03-22T10:27:54;100270.97;;;13.90;59.73
58761;BME280;44529;47.464;19.014;2023-03-22T10:31:00;100266.56;;;13.86;60.11
58761;BME280;44529;47.464;19.014;2023-03-22T10:34:09;100262.50;;;13.71;60.68
58761;BME280;44529;47.464;19.014;2023-03-22T10:37:29;100257.41;;;13.69;61.40
58761;BME280;44529;47.464;19.014;2023-03-22T10:40:35;100263.25;;;13.59;60.98
58761;BME280;44529;47.464;19.014;2023-03-22T10:43:39;100259.41;;;13.60;61.21
58761;BME280;44529;47.464;19.014;2023-03-22T10:46:43;100260.84;;;13.58;61.97
58761;BME280;44529;47.464;19.014;2023-03-22T10:49:50;100255.56;;;13.61;61.04
58761;BME280;44529;47.464;19.014;2023-03-22T10:53:09;100251.03;;;13.65;62.11
58761;BME280;44529;47.464;19.014;2023-03-22T10:56:16;100253.75;;;13.65;61.41
58761;BME280;44529;47.464;19.014;2023-03-22T11:02:56;100250.31;;;13.56;61.54
58761;BME280;44529;47.464;19.014;2023-03-22T11:09:20;100252.31;;;13.68;61.19
58761;BME280;44529;47.464;19.014;2023-03-22T11:12:23;100247.94;;;13.75;60.66
58761;BME280;44529;47.464;19.014;2023-03-22T11:15:31;100241.09;;;13.69;60.30
58761;BME280;44529;47.464;19.014;2023-03-22T11:18:33;100235.69;;;13.69;60.18
58761;BME280;44529;47.464;19.014;2023-03-22T11:21:36;100233.94;;;13.65;60.68
58761;BME280;44529;47.464;19.014;2023-03-22T11:24:38;100228.19;;;13.66;60.67
58761;BME280;44529;47.464;19.014;2023-03-22T11:34:15;100223.41;;;13.63;61.24
58761;BME280;44529;47.464;19.014;2023-03-22T11:37:20;100217.44;;;13.70;61.69
58761;BME280;44529;47.464;19.014;2023-03-22T11:40:29;100217.16;;;13.83;60.39
58761;BME280;44529;47.464;19.014;2023-03-22T11:43:39;100202.44;;;13.85;61.50
58761;BME280;44529;47.464;19.014;2023-03-22T11:46:56;100200.66;;;13.89;60.82
58761;BME280;44529;47.464;19.014;2023-03-22T11:50:03;100195.00;;;13.94;60.72
58761;BME280;44529;47.464;19.014;2023-03-22T11:53:12;100201.94;;;14.03;60.56
58761;BME280;44529;47.464;19.014;2023-03-22T11:56:17;100198.12;;;14.17;60.29
58761;BME280;44529;47.464;19.014;2023-03-22T11:59:26;100191.69;;;14.33;59.27
58761;BME280;44529;47.464;19.014;2023-03-22T12:02:40;100198.12;;;14.50;58.97
58761;BME280;44529;47.464;19.014;2023-03-22T12:05:48;100193.22;;;14.68;58.34
58761;BME280;44529;47.464;19.014;2023-03-22T12:08:55;100199.47;;;14.68;57.16
58761;BME280;44529;47.464;19.014;2023-03-22T12:12:00;100198.00;;;14.71;57.24
58761;BME280;44529;47.464;19.014;2023-03-22T12:15:06;100198.56;;;14.88;56.11
58761;BME280;44529;47.464;19.014;2023-03-22T12:18:20;100190.16;;;15.06;56.35
58761;BME280;44529;47.464;19.014;2023-03-22T12:21:24;100191.72;;;15.19;55.68
58761;BME280;44529;47.464;19.014;2023-03-22T12:24:30;100192.81;;;15.30;55.38
58761;BME280;44529;47.464;19.014;2023-03-22T12:27:36;100186.91;;;15.40;55.56
58761;BME280;44529;47.464;19.014;2023-03-22T12:30:51;100195.63;;;15.46;54.25
58761;BME280;44529;47.464;19.014;2023-03-22T12:33:57;100190.47;;;15.57;53.64
58761;BME280;44529;47.464;19.014;2023-03-22T12:37:01;100183.69;;;15.51;55.02
58761;BME280;44529;47.464;19.014;2023-03-22T12:40:22;100195.50;;;15.55;54.83
58761;BME280;44529;47.464;19.014;2023-03-22T12:46:46;100192.56;;;15.48;53.14
58761;BME280;44529;47.464;19.014;2023-03-22T12:50:06;100189.25;;;15.66;52.16
58761;BME280;44529;47.464;19.014;2023-03-22T12:53:15;100177.75;;;15.73;51.79
58761;BME280;44529;47.464;19.014;2023-03-22T12:56:23;100181.94;;;15.70;52.05
58761;BME280;44529;47.464;19.014;2023-03-22T12:59:28;100172.37;;;15.77;51.34
58761;BME280;44529;47.464;19.014;2023-03-22T13:02:33;100172.84;;;15.94;50.56
58761;BME280;44529;47.464;19.014;2023-03-22T13:05:37;100170.06;;;16.07;50.39
58761;BME280;44529;47.464;19.014;2023-03-22T13:15:30;100146.84;;;16.29;48.46
58761;BME280;44529;47.464;19.014;2023-03-22T13:21:47;100146.75;;;16.57;45.90
58761;BME280;44529;47.464;19.014;2023-03-22T13:28:22;100141.44;;;16.79;45.02
58761;BME280;44529;47.464;19.014;2023-03-22T13:31:36;100136.34;;;16.62;43.68
58761;BME280;44529;47.464;19.014;2023-03-22T13:34:44;100138.13;;;16.70;44.41
58761;BME280;44529;47.464;19.014;2023-03-22T13:37:48;100134.34;;;16.75;43.62
58761;BME280;44529;47.464;19.014;2023-03-22T13:44:30;100130.50;;;16.95;43.30
58761;BME280;44529;47.464;19.014;2023-03-22T13:47:43;100135.09;;;16.91;44.47
58761;BME280;44529;47.464;19.014;2023-03-22T13:50:46;100127.03;;;16.98;45.63
58761;BME280;44529;47.464;19.014;2023-03-22T13:57:01;100122.31;;;16.79;43.74
58761;BME280;44529;47.464;19.014;2023-03-22T14:03:27;100111.66;;;16.90;41.26
58761;BME280;44529;47.464;19.014;2023-03-22T14:06:34;100110.34;;;16.84;43.52
58761;BME280;44529;47.464;19.014;2023-03-22T14:09:44;100108.75;;;16.67;45.05
58761;BME280;44529;47.464;19.014;2023-03-22T14:13:10;100107.38;;;16.58;45.42
58761;BME280;44529;47.464;19.014;2023-03-22T14:16:43;100110.12;;;16.58;45.42
58761;BME280;44529;47.464;19.014;2023-03-22T14:19:47;100105.34;;;16.55;45.47
58761;BME280;44529;47.464;19.014;2023-03-22T14:22:57;100108.81;;;16.51;44.89
58761;BME280;44529;47.464;19.014;2023-03-22T14:26:05;100098.66;;;16.52;45.19
58761;BME280;44529;47.464;19.014;2023-03-22T14:32:22;100093.84;;;16.45;45.81
58761;BME280;44529;47.464;19.014;2023-03-22T14:35:41;100098.56;;;16.48;45.74
58761;BME280;44529;47.464;19.014;2023-03-22T14:38:45;100096.03;;;16.40;46.38
58761;BME280;44529;47.464;19.014;2023-03-22T14:42:02;100097.00;;;16.47;46.42
58761;BME280;44529;47.464;19.014;2023-03-22T14:45:16;100093.31;;;16.56;46.39
58761;BME280;44529;47.464;19.014;2023-03-22T14:48:22;100094.72;;;16.49;46.57
58761;BME280;44529;47.464;19.014;2023-03-22T14:51:36;100094.56;;;16.42;47.08
58761;BME280;44529;47.464;19.014;2023-03-22T14:54:38;100088.13;;;16.35;47.24
58761;BME280;44529;47.464;19.014;2023-03-22T14:57:57;100088.66;;;16.40;47.18
58761;BME280;44529;47.464;19.014;2023-03-22T15:01:09;100082.81;;;16.42;47.10
58761;BME280;44529;47.464;19.014;2023-03-22T15:04:14;100075.88;;;16.44;47.26
58761;BME280;44529;47.464;19.014;2023-03-22T15:07:17;100082.03;;;16.41;47.43
58761;BME280;44529;47.464;19.014;2023-03-22T15:10:25;100068.66;;;16.52;47.93
58761;BME280;44529;47.464;19.014;2023-03-22T15:13:28;100075.88;;;16.44;47.93
58761;BME280;44529;47.464;19.014;2023-03-22T15:16:32;100071.47;;;16.40;48.44
58761;BME280;44529;47.464;19.014;2023-03-22T15:19:45;100073.25;;;16.32;48.37
58761;BME280;44529;47.464;19.014;2023-03-22T15:22:52;100064.47;;;16.23;49.16
58761;BME280;44529;47.464;19.014;2023-03-22T15:25:53;100063.75;;;16.26;48.86
58761;BME280;44529;47.464;19.014;2023-03-22T15:29:00;100059.34;;;16.21;49.29
58761;BME280;44529;47.464;19.014;2023-03-22T15:32:12;100055.84;;;16.21;49.49
58761;BME280;44529;47.464;19.014;2023-03-22T15:35:16;100052.69;;;16.19;49.31
58761;BME280;44529;47.464;19.014;2023-03-22T15:38:28;100059.03;;;16.23;49.91
58761;BME280;44529;47.464;19.014;2023-03-22T15:41:38;100055.03;;;16.20;50.19
58761;BME280;44529;47.464;19.014;2023-03-22T15:45:05;100051.69;;;16.27;50.49
58761;BME280;44529;47.464;19.014;2023-03-22T15:48:18;100048.28;;;16.30;49.33
58761;BME280;44529;47.464;19.014;2023-03-22T15:51:31;100047.00;;;16.43;49.14
58761;BME280;44529;47.464;19.014;2023-03-22T15:54:33;100047.75;;;16.60;49.12
58761;BME280;44529;47.464;19.014;2023-03-22T15:57:46;100045.81;;;16.76;48.45
58761;BME280;44529;47.464;19.014;2023-03-22T16:00:48;100046.81;;;16.87;47.64
58761;BME280;44529;47.464;19.014;2023-03-22T16:03:56;100040.22;;;16.88;47.75
58761;BME280;44529;47.464;19.014;2023-03-22T16:06:58;100043.22;;;16.83;47.85
58761;BME280;44529;47.464;19.014;2023-03-22T16:10:00;100051.69;;;16.78;47.56
58761;BME280;44529;47.464;19.014;2023-03-22T16:13:20;100043.16;;;16.64;47.96
58761;BME280;44529;47.464;19.014;2023-03-22T16:16:24;100046.81;;;16.52;47.77
58761;BME280;44529;47.464;19.014;2023-03-22T16:19:25;100040.94;;;16.34;47.86
58761;BME280;44529;47.464;19.014;2023-03-22T16:22:27;100044.06;;;16.17;48.41
58761;BME280;44529;47.464;19.014;2023-03-22T16:25:28;100045.91;;;16.13;48.26
58761;BME280;44529;47.464;19.014;2023-03-22T16:28:33;100045.75;;;16.06;48.67
58761;BME280;44529;47.464;19.014;2023-03-22T16:31:35;100040.97;;;16.03;48.36
58761;BME280;44529;47.464;19.014;2023-03-22T16:34:37;100038.97;;;16.00;48.47
58761;BME280;44529;47.464;19.014;2023-03-22T16:37:38;100044.00;;;15.97;48.61
58761;BME280;44529;47.464;19.014;2023-03-22T16:40:48;100044.25;;;15.92;49.09
58761;BME280;44529;47.464;19.014;2023-03-22T16:43:53;100045.22;;;15.84;49.35
58761;BME280;44529;47.464;19.014;2023-03-22T16:46:54;100051.72;;;15.80;49.80
58761;BME280;44529;47.464;19.014;2023-03-22T16:49:55;100049.97;;;15.72;49.84
58761;BME280;44529;47.464;19.014;2023-03-22T16:52:57;100047.97;;;15.56;50.87
58761;BME280;44529;47.464;19.014;2023-03-22T16:55:58;100057.78;;;15.45;51.50
58761;BME280;44529;47.464;19.014;2023-03-22T16:58:59;100054.59;;;15.27;52.01
58761;BME280;44529;47.464;19.014;2023-03-22T17:02:00;100045.78;;;15.18;51.69
58761;BME280;44529;47.464;19.014;2023-03-22T17:05:03;100051.25;;;15.06;52.09
58761;BME280;44529;47.464;19.014;2023-03-22T17:08:13;100050.63;;;14.97;52.35
58761;BME280;44529;47.464;19.014;2023-03-22T17:11:24;100047.59;;;14.86;52.58
58761;BME280;44529;47.464;19.014;2023-03-22T17:14:27;100050.34;;;14.74;53.51
58761;BME280;44529;47.464;19.014;2023-03-22T17:17:29;100048.91;;;14.64;53.01